createdAt,value
2017-11-23T00:00:21.161Z,0
2017-11-23T00:01:22.873Z,0
2017-11-23T00:02:24.685Z,0
2017-11-23T00:03:26.402Z,0
2017-11-23T00:04:28.212Z,0
2017-11-23T00:05:30.135Z,0
2017-11-23T00:06:32.364Z,0
2017-11-23T00:07:34.428Z,0
2017-11-23T00:08:36.070Z,0
2017-11-23T00:09:38.038Z,0
2017-11-23T00:10:39.769Z,0
2017-11-23T00:11:41.494Z,0
2017-11-23T00:12:43.358Z,0
2017-11-23T00:13:45.202Z,0
2017-11-23T00:14:46.886Z,0
2017-11-23T00:15:48.786Z,0
2017-11-23T00:16:50.500Z,0
2017-11-23T00:17:52.738Z,0
2017-11-23T00:18:54.415Z,0
2017-11-23T00:19:56.526Z,0
2017-11-23T00:20:58.246Z,0
2017-11-23T00:22:00.322Z,0
2017-11-23T00:23:02.045Z,0
2017-11-23T00:24:03.724Z,0
2017-11-23T00:25:05.671Z,0
2017-11-23T00:26:07.506Z,0
2017-11-23T00:27:09.562Z,0
2017-11-23T00:28:11.509Z,0
2017-11-23T00:29:13.608Z,0
2017-11-23T00:30:15.631Z,0
2017-11-23T00:31:17.304Z,0
2017-11-23T00:32:19.167Z,0
2017-11-23T00:33:20.996Z,0
2017-11-23T00:34:23.151Z,0
2017-11-23T00:35:24.922Z,0
2017-11-23T00:36:26.851Z,0
2017-11-23T00:37:28.594Z,0
2017-11-23T00:38:30.510Z,0
2017-11-23T00:39:32.359Z,0
2017-11-23T00:40:34.080Z,0
2017-11-23T00:41:35.845Z,0
2017-11-23T00:42:37.584Z,0
2017-11-23T00:43:39.347Z,0
2017-11-23T00:44:41.300Z,0
2017-11-23T00:45:43.057Z,0
2017-11-23T00:46:44.777Z,0
2017-11-23T00:47:46.586Z,0
2017-11-23T00:48:48.270Z,0
2017-11-23T00:49:49.992Z,0
2017-11-23T00:50:51.687Z,0
2017-11-23T00:51:53.434Z,0
2017-11-23T00:52:55.136Z,0
2017-11-23T00:53:57.263Z,0
2017-11-23T00:54:59.051Z,0
2017-11-23T00:56:01.311Z,0
2017-11-23T00:57:03.292Z,0
2017-11-23T00:58:05.141Z,0
2017-11-23T00:59:07.010Z,0
2017-11-23T01:00:08.795Z,0
2017-11-23T01:01:10.632Z,0
2017-11-23T01:02:12.334Z,0
2017-11-23T01:03:14.107Z,0
2017-11-23T01:04:15.844Z,0
2017-11-23T01:05:17.844Z,0
2017-11-23T01:06:19.646Z,0
2017-11-23T01:07:21.441Z,0
2017-11-23T01:08:23.237Z,0
2017-11-23T01:09:25.060Z,0
2017-11-23T01:10:26.965Z,0
2017-11-23T01:11:29.108Z,0
2017-11-23T01:12:30.814Z,0
2017-11-23T01:13:32.548Z,0
2017-11-23T01:14:34.290Z,0
2017-11-23T01:15:36.021Z,0
2017-11-23T01:16:38.025Z,0
2017-11-23T01:17:39.634Z,0
2017-11-23T01:18:41.306Z,0
2017-11-23T01:19:43.068Z,0
2017-11-23T01:20:44.787Z,0
2017-11-23T01:21:46.878Z,0
2017-11-23T01:22:48.602Z,0
2017-11-23T01:23:50.510Z,0
2017-11-23T01:24:52.171Z,0
2017-11-23T01:25:53.935Z,0
2017-11-23T01:26:55.750Z,0
2017-11-23T01:27:57.806Z,0
2017-11-23T01:28:59.738Z,0
2017-11-23T01:30:01.375Z,0
2017-11-23T01:31:03.467Z,0
2017-11-23T01:32:05.028Z,0
2017-11-23T01:33:06.861Z,0
2017-11-23T01:34:08.670Z,0
2017-11-23T01:35:10.391Z,0
2017-11-23T01:36:12.166Z,0
2017-11-23T01:37:13.997Z,0
2017-11-23T01:38:15.873Z,0
2017-11-23T01:39:17.606Z,0
2017-11-23T01:40:19.396Z,0
2017-11-23T01:41:21.172Z,0
2017-11-23T01:42:22.881Z,0
2017-11-23T01:43:24.528Z,0
2017-11-23T01:44:26.290Z,0
2017-11-23T01:45:28.022Z,0
2017-11-23T01:46:29.831Z,0
2017-11-23T01:47:31.731Z,0
2017-11-23T01:48:33.337Z,0
2017-11-23T01:49:34.793Z,0
2017-11-23T01:50:36.418Z,0
2017-11-23T01:51:38.210Z,0
2017-11-23T01:52:39.895Z,0
2017-11-23T01:53:41.760Z,0
2017-11-23T01:54:43.505Z,0
2017-11-23T01:55:45.194Z,0
2017-11-23T01:56:47.137Z,0
2017-11-23T01:57:48.858Z,0
2017-11-23T01:58:50.738Z,0
2017-11-23T01:59:52.860Z,0
2017-11-23T02:00:54.734Z,0
2017-11-23T02:01:56.375Z,0
2017-11-23T02:02:58.169Z,0
2017-11-23T02:03:59.798Z,0
2017-11-23T02:05:02.025Z,0
2017-11-23T02:06:03.623Z,0
2017-11-23T02:07:05.300Z,0
2017-11-23T02:08:07.170Z,0
2017-11-23T02:09:08.855Z,0
2017-11-23T02:10:10.580Z,0
2017-11-23T02:11:12.434Z,0
2017-11-23T02:12:14.249Z,0
2017-11-23T02:13:15.925Z,0
2017-11-23T02:14:17.899Z,0
2017-11-23T02:15:19.534Z,0
2017-11-23T02:16:21.061Z,0
2017-11-23T02:17:22.821Z,0
2017-11-23T02:18:24.555Z,0
2017-11-23T02:19:26.325Z,0
2017-11-23T02:20:28.110Z,0
2017-11-23T02:21:29.980Z,0
2017-11-23T02:22:31.734Z,0
2017-11-23T02:23:33.491Z,0
2017-11-23T02:24:35.153Z,0
2017-11-23T02:25:36.841Z,0
2017-11-23T02:26:38.793Z,0
2017-11-23T02:27:40.491Z,0
2017-11-23T02:28:42.523Z,0
2017-11-23T02:29:44.220Z,0
2017-11-23T02:30:45.662Z,0
2017-11-23T02:31:47.461Z,0
2017-11-23T02:32:49.126Z,0
2017-11-23T02:33:50.880Z,0
2017-11-23T02:34:52.847Z,0
2017-11-23T02:35:54.513Z,0
2017-11-23T02:36:56.228Z,0
2017-11-23T02:37:58.327Z,0
2017-11-23T02:39:00.091Z,0
2017-11-23T02:40:02.000Z,0
2017-11-23T02:41:03.727Z,0
2017-11-23T02:42:05.418Z,0
2017-11-23T02:43:07.472Z,0
2017-11-23T02:44:09.118Z,0
2017-11-23T02:45:10.843Z,0
2017-11-23T02:46:12.575Z,0
2017-11-23T02:47:14.312Z,0
2017-11-23T02:48:16.061Z,0
2017-11-23T02:49:18.012Z,0
2017-11-23T02:50:19.764Z,0
2017-11-23T02:51:21.537Z,0
2017-11-23T02:52:23.458Z,0
2017-11-23T02:53:25.398Z,0
2017-11-23T02:54:27.065Z,0
2017-11-23T02:55:28.834Z,0
2017-11-23T02:56:30.473Z,0
2017-11-23T02:57:32.033Z,0
2017-11-23T02:58:33.832Z,0
2017-11-23T02:59:35.599Z,0
2017-11-23T03:00:37.496Z,0
2017-11-23T03:01:39.229Z,0
2017-11-23T03:02:41.011Z,0
2017-11-23T03:03:43.258Z,0
2017-11-23T03:04:44.976Z,0
2017-11-23T03:05:46.841Z,0
2017-11-23T03:06:48.752Z,0
2017-11-23T03:07:50.629Z,0
2017-11-23T03:08:52.711Z,0
2017-11-23T03:09:54.577Z,0
2017-11-23T03:10:56.251Z,0
2017-11-23T03:11:58.035Z,0
2017-11-23T03:12:59.786Z,0
2017-11-23T03:14:01.530Z,0
2017-11-23T03:15:03.387Z,0
2017-11-23T03:16:05.081Z,0
2017-11-23T03:17:06.958Z,0
2017-11-23T03:18:08.657Z,0
2017-11-23T03:19:10.812Z,0
2017-11-23T03:20:12.694Z,0
2017-11-23T03:21:14.479Z,0
2017-11-23T03:22:16.177Z,0
2017-11-23T03:23:17.879Z,0
2017-11-23T03:24:19.901Z,0
2017-11-23T03:25:21.610Z,0
2017-11-23T03:26:23.382Z,0
2017-11-23T03:27:25.166Z,0
2017-11-23T03:28:27.012Z,0
2017-11-23T03:29:28.678Z,0
2017-11-23T03:30:30.778Z,0
2017-11-23T03:31:32.528Z,0
2017-11-23T03:32:34.359Z,0
2017-11-23T03:33:36.129Z,0
2017-11-23T03:34:37.932Z,0
2017-11-23T03:35:40.040Z,0
2017-11-23T03:36:41.751Z,0
2017-11-23T03:37:43.628Z,0
2017-11-23T03:38:45.288Z,0
2017-11-23T03:39:47.034Z,0
2017-11-23T03:40:48.922Z,0
2017-11-23T03:41:50.661Z,0
2017-11-23T03:42:52.607Z,0
2017-11-23T03:43:54.335Z,0
2017-11-23T03:44:56.276Z,0
2017-11-23T03:45:58.004Z,0
2017-11-23T03:46:59.667Z,0
2017-11-23T03:48:01.575Z,0
2017-11-23T03:49:03.336Z,0
2017-11-23T03:50:04.808Z,0
2017-11-23T03:51:06.457Z,0
2017-11-23T03:52:08.402Z,0
2017-11-23T03:53:10.077Z,0
2017-11-23T03:54:12.009Z,0
2017-11-23T03:55:13.682Z,0
2017-11-23T03:56:15.538Z,0
2017-11-23T03:57:17.548Z,0
2017-11-23T03:58:19.627Z,0
2017-11-23T03:59:21.245Z,0
2017-11-23T04:00:22.763Z,0
2017-11-23T04:01:24.544Z,0
2017-11-23T04:02:26.340Z,0
2017-11-23T04:03:28.357Z,0
2017-11-23T04:04:30.204Z,0
2017-11-23T04:05:31.998Z,0
2017-11-23T04:06:33.767Z,0
2017-11-23T04:07:35.508Z,0
2017-11-23T04:08:37.284Z,0
2017-11-23T04:09:39.022Z,0
2017-11-23T04:10:40.977Z,0
2017-11-23T04:11:42.864Z,0
2017-11-23T04:12:44.666Z,0
2017-11-23T04:13:46.110Z,0
2017-11-23T04:14:47.886Z,0
2017-11-23T04:15:49.806Z,0
2017-11-23T04:16:51.534Z,0
2017-11-23T04:17:53.244Z,0
2017-11-23T04:18:54.987Z,0
2017-11-23T04:19:56.747Z,0
2017-11-23T04:20:58.510Z,0
2017-11-23T04:21:59.996Z,0
2017-11-23T04:23:01.809Z,0
2017-11-23T04:24:03.902Z,0
2017-11-23T04:25:05.621Z,0
2017-11-23T04:26:07.380Z,0
2017-11-23T04:27:09.454Z,0
2017-11-23T04:28:11.170Z,0
2017-11-23T04:29:12.855Z,0
2017-11-23T04:30:14.301Z,0
2017-11-23T04:31:16.084Z,0
2017-11-23T04:32:17.744Z,0
2017-11-23T04:33:19.669Z,0
2017-11-23T04:34:21.371Z,0
2017-11-23T04:35:23.127Z,0
2017-11-23T04:36:24.934Z,0
2017-11-23T04:37:26.717Z,0
2017-11-23T04:38:28.473Z,0
2017-11-23T04:39:30.117Z,0
2017-11-23T04:40:31.696Z,0
2017-11-23T04:41:33.368Z,0
2017-11-23T04:42:35.268Z,0
2017-11-23T04:43:36.686Z,0
2017-11-23T04:44:38.584Z,0
2017-11-23T04:45:40.403Z,0
2017-11-23T04:46:42.070Z,0
2017-11-23T04:47:43.982Z,0
2017-11-23T04:48:45.448Z,0
2017-11-23T04:49:47.377Z,0
2017-11-23T04:50:49.146Z,0
2017-11-23T04:51:50.944Z,0
2017-11-23T04:52:52.465Z,0
2017-11-23T04:53:54.199Z,0
2017-11-23T04:54:55.863Z,0
2017-11-23T04:55:57.709Z,0
2017-11-23T04:56:59.608Z,0
2017-11-23T04:58:01.066Z,0
2017-11-23T04:59:02.878Z,0
2017-11-23T05:00:04.587Z,0
2017-11-23T05:01:06.301Z,0
2017-11-23T05:02:08.386Z,0
2017-11-23T05:03:09.921Z,0
2017-11-23T05:04:11.555Z,0
2017-11-23T05:05:13.266Z,0
2017-11-23T05:06:15.019Z,0
2017-11-23T05:07:16.781Z,0
2017-11-23T05:08:18.521Z,0
2017-11-23T05:09:19.989Z,0
2017-11-23T05:10:21.811Z,0
2017-11-23T05:11:23.314Z,0
2017-11-23T05:12:24.778Z,0
2017-11-23T05:13:26.483Z,0
2017-11-23T05:14:27.982Z,0
2017-11-23T05:15:29.838Z,0
2017-11-23T05:16:31.628Z,0
2017-11-23T05:17:33.163Z,0
2017-11-23T05:18:35.126Z,0
2017-11-23T05:19:36.992Z,0
2017-11-23T05:20:38.688Z,0
2017-11-23T05:21:40.585Z,0
2017-11-23T05:22:42.284Z,0
2017-11-23T05:23:44.149Z,0
2017-11-23T05:24:45.983Z,0
2017-11-23T05:25:47.418Z,0
2017-11-23T05:26:49.330Z,0
2017-11-23T05:27:50.802Z,0
2017-11-23T05:28:52.837Z,0
2017-11-23T05:29:54.592Z,0
2017-11-23T05:30:56.427Z,0
2017-11-23T05:31:58.219Z,0
2017-11-23T05:33:00.082Z,0
2017-11-23T05:34:01.830Z,0
2017-11-23T05:35:03.584Z,0
2017-11-23T05:36:05.443Z,0
2017-11-23T05:37:06.904Z,0
2017-11-23T05:38:08.824Z,0
2017-11-23T05:39:10.567Z,0
2017-11-23T05:40:12.398Z,0
2017-11-23T05:41:14.018Z,0
2017-11-23T05:42:15.848Z,0
2017-11-23T05:43:17.351Z,0
2017-11-23T05:44:19.166Z,0
2017-11-23T05:45:20.773Z,0
2017-11-23T05:46:22.613Z,0
2017-11-23T05:47:24.466Z,0
2017-11-23T05:48:26.137Z,0
2017-11-23T05:49:27.951Z,0
2017-11-23T05:50:29.550Z,0
2017-11-23T05:51:31.611Z,0
2017-11-23T05:52:33.472Z,0
2017-11-23T05:53:35.254Z,0
2017-11-23T05:54:36.967Z,0
2017-11-23T05:55:38.601Z,0
2017-11-23T05:56:40.200Z,0
2017-11-23T05:57:42.058Z,0
2017-11-23T05:58:43.883Z,0
2017-11-23T05:59:45.600Z,0
2017-11-23T06:00:47.054Z,0
2017-11-23T06:01:48.975Z,0
2017-11-23T06:02:50.905Z,0
2017-11-23T06:03:52.411Z,0
2017-11-23T06:04:54.249Z,0
2017-11-23T06:05:55.843Z,0
2017-11-23T06:06:57.318Z,0
2017-11-23T06:07:58.961Z,0
2017-11-23T06:09:00.389Z,0
2017-11-23T06:10:02.168Z,0
2017-11-23T06:11:03.768Z,0
2017-11-23T06:12:05.263Z,0
2017-11-23T06:13:06.765Z,0
2017-11-23T06:14:08.416Z,0
2017-11-23T06:15:10.445Z,0
2017-11-23T06:16:12.185Z,0
2017-11-23T06:17:13.853Z,0
2017-11-23T06:18:15.337Z,0
2017-11-23T06:19:17.196Z,0
2017-11-23T06:20:18.673Z,0
2017-11-23T06:21:20.403Z,0
2017-11-23T06:22:22.223Z,0
2017-11-23T06:23:24.352Z,0
2017-11-23T06:24:26.461Z,0
2017-11-23T06:25:28.245Z,0
2017-11-23T06:26:30.367Z,0
2017-11-23T06:27:32.101Z,0
2017-11-23T06:28:33.865Z,0
2017-11-23T06:29:35.348Z,0
2017-11-23T06:30:37.171Z,4
2017-11-23T06:31:39.233Z,4
2017-11-23T06:32:40.837Z,4
2017-11-23T06:33:42.275Z,4
2017-11-23T06:34:43.719Z,4
2017-11-23T06:35:45.167Z,4
2017-11-23T06:36:46.805Z,4
2017-11-23T06:37:48.294Z,8
2017-11-23T06:38:50.078Z,8
2017-11-23T06:39:52.114Z,8
2017-11-23T06:40:53.533Z,12
2017-11-23T06:41:54.992Z,16
2017-11-23T06:42:56.437Z,16
2017-11-23T06:43:58.206Z,16
2017-11-23T06:44:59.879Z,16
2017-11-23T06:46:02.128Z,20
2017-11-23T06:47:03.617Z,20
2017-11-23T06:48:05.103Z,24
2017-11-23T06:49:06.865Z,28
2017-11-23T06:50:08.838Z,24
2017-11-23T06:51:10.821Z,32
2017-11-23T06:52:12.291Z,44
2017-11-23T06:53:14.146Z,48
2017-11-23T06:54:15.589Z,60
2017-11-23T06:55:17.074Z,68
2017-11-23T06:56:18.509Z,68
2017-11-23T06:57:19.967Z,68
2017-11-23T06:58:21.757Z,64
2017-11-23T06:59:23.613Z,72
2017-11-23T07:00:25.278Z,84
2017-11-23T07:01:26.738Z,100
2017-11-23T07:02:28.234Z,116
2017-11-23T07:03:30.332Z,136
2017-11-23T07:04:32.346Z,140
2017-11-23T07:05:33.779Z,136
2017-11-23T07:06:35.241Z,144
2017-11-23T07:07:37.032Z,148
2017-11-23T07:08:38.464Z,148
2017-11-23T07:09:40.161Z,140
2017-11-23T07:10:42.018Z,136
2017-11-23T07:11:43.597Z,144
2017-11-23T07:12:45.021Z,164
2017-11-23T07:13:46.478Z,196
2017-11-23T07:14:48.352Z,208
2017-11-23T07:15:50.416Z,188
2017-11-23T07:16:52.658Z,188
2017-11-23T07:17:54.152Z,196
2017-11-23T07:18:55.921Z,196
2017-11-23T07:19:57.443Z,208
2017-11-23T07:20:58.899Z,256
2017-11-23T07:22:00.631Z,312
2017-11-23T07:23:02.681Z,344
2017-11-23T07:24:04.618Z,392
2017-11-23T07:25:06.066Z,436
2017-11-23T07:26:07.638Z,476
2017-11-23T07:27:09.382Z,496
2017-11-23T07:28:10.859Z,528
2017-11-23T07:29:12.898Z,548
2017-11-23T07:30:14.848Z,596
2017-11-23T07:31:16.582Z,636
2017-11-23T07:32:18.041Z,660
2017-11-23T07:33:19.851Z,720
2017-11-23T07:34:21.665Z,808
2017-11-23T07:35:23.185Z,896
2017-11-23T07:36:24.618Z,972
2017-11-23T07:37:26.335Z,980
2017-11-23T07:38:28.450Z,940
2017-11-23T07:39:29.982Z,936
2017-11-23T07:40:31.479Z,992
2017-11-23T07:41:32.992Z,1088
2017-11-23T07:42:34.519Z,1144
2017-11-23T07:43:35.996Z,1096
2017-11-23T07:44:37.861Z,1176
2017-11-23T07:45:39.298Z,1344
2017-11-23T07:46:40.785Z,1376
2017-11-23T07:47:42.522Z,1264
2017-11-23T07:48:43.937Z,1112
2017-11-23T07:49:45.749Z,928
2017-11-23T07:50:47.337Z,860
2017-11-23T07:51:49.063Z,804
2017-11-23T07:52:50.613Z,740
2017-11-23T07:53:52.277Z,664
2017-11-23T07:54:54.069Z,576
2017-11-23T07:55:56.061Z,528
2017-11-23T07:56:57.654Z,492
2017-11-23T07:57:59.642Z,504
2017-11-23T07:59:01.607Z,552
2017-11-23T08:00:03.263Z,648
2017-11-23T08:01:04.763Z,720
2017-11-23T08:02:06.519Z,704
2017-11-23T08:03:08.364Z,724
2017-11-23T08:04:10.156Z,732
2017-11-23T08:05:11.665Z,736
2017-11-23T08:06:13.165Z,764
2017-11-23T08:07:14.675Z,832
2017-11-23T08:08:16.116Z,900
2017-11-23T08:09:17.621Z,996
2017-11-23T08:10:19.479Z,1084
2017-11-23T08:11:21.179Z,1184
2017-11-23T08:12:22.755Z,1244
2017-11-23T08:13:24.865Z,1276
2017-11-23T08:14:26.630Z,1384
2017-11-23T08:15:28.516Z,1668
2017-11-23T08:16:30.123Z,2008
2017-11-23T08:17:31.980Z,1968
2017-11-23T08:18:33.515Z,1976
2017-11-23T08:19:34.950Z,1888
2017-11-23T08:20:36.514Z,2112
2017-11-23T08:21:38.052Z,2104
2017-11-23T08:22:40.113Z,1744
2017-11-23T08:23:42.211Z,1684
2017-11-23T08:24:43.873Z,1716
2017-11-23T08:25:45.363Z,1796
2017-11-23T08:26:46.792Z,1844
2017-11-23T08:27:48.807Z,1832
2017-11-23T08:28:50.541Z,2092
2017-11-23T08:29:52.206Z,1776
2017-11-23T08:30:54.190Z,1868
2017-11-23T08:31:56.056Z,2296
2017-11-23T08:32:58.269Z,2960
2017-11-23T08:33:59.855Z,3464
2017-11-23T08:35:01.899Z,3696
2017-11-23T08:36:03.778Z,3816
2017-11-23T08:37:05.211Z,3796
2017-11-23T08:38:06.728Z,3812
2017-11-23T08:39:08.570Z,4372
2017-11-23T08:40:10.120Z,3364
2017-11-23T08:41:11.568Z,4852
2017-11-23T08:42:13.043Z,4820
2017-11-23T08:43:15.060Z,5060
2017-11-23T08:44:16.601Z,4916
2017-11-23T08:45:18.382Z,6076
2017-11-23T08:46:19.862Z,6840
2017-11-23T08:47:21.744Z,5076
2017-11-23T08:48:23.292Z,7100
2017-11-23T08:49:24.723Z,6768
2017-11-23T08:50:26.231Z,5968
2017-11-23T08:51:27.677Z,7488
2017-11-23T08:52:29.705Z,6952
2017-11-23T08:53:32.252Z,6276
2017-11-23T08:54:33.709Z,7708
2017-11-23T08:55:35.149Z,6316
2017-11-23T08:56:36.593Z,6716
2017-11-23T08:57:38.024Z,8080
2017-11-23T08:58:39.479Z,8000
2017-11-23T08:59:40.918Z,6660
2017-11-23T09:00:42.674Z,6988
2017-11-23T09:01:44.616Z,7812
2017-11-23T09:02:46.334Z,8112
2017-11-23T09:03:47.794Z,8164
2017-11-23T09:04:49.634Z,8432
2017-11-23T09:05:51.120Z,9020
2017-11-23T09:06:52.569Z,9404
2017-11-23T09:07:53.982Z,10376
2017-11-23T09:08:55.434Z,10552
2017-11-23T09:09:57.171Z,10944
2017-11-23T09:10:58.645Z,11208
2017-11-23T09:12:00.100Z,11428
2017-11-23T09:13:02.761Z,12104
2017-11-23T09:14:04.501Z,13792
2017-11-23T09:15:05.981Z,15072
2017-11-23T09:16:08.129Z,14400
2017-11-23T09:17:09.622Z,13440
2017-11-23T09:18:11.166Z,11864
2017-11-23T09:19:12.713Z,8076
2017-11-23T09:20:14.534Z,7856
2017-11-23T09:21:15.980Z,8040
2017-11-23T09:22:17.454Z,8200
2017-11-23T09:23:19.421Z,8584
2017-11-23T09:24:21.636Z,7292
2017-11-23T09:25:23.151Z,5744
2017-11-23T09:26:25.123Z,4688
2017-11-23T09:27:26.814Z,4100
2017-11-23T09:28:28.340Z,4796
2017-11-23T09:29:29.779Z,8000
2017-11-23T09:30:31.227Z,6892
2017-11-23T09:31:32.669Z,7072
2017-11-23T09:32:34.200Z,6980
2017-11-23T09:33:35.710Z,6520
2017-11-23T09:34:37.190Z,5732
2017-11-23T09:35:39.047Z,6268
2017-11-23T09:36:40.891Z,4308
2017-11-23T09:37:42.328Z,4096
2017-11-23T09:38:43.770Z,3356
2017-11-23T09:39:45.211Z,4308
2017-11-23T09:40:47.239Z,5180
2017-11-23T09:41:48.851Z,5664
2017-11-23T09:42:50.657Z,4064
2017-11-23T09:43:52.565Z,4184
2017-11-23T09:44:54.645Z,3180
2017-11-23T09:45:56.600Z,2892
2017-11-23T09:46:58.470Z,3480
2017-11-23T09:48:00.537Z,4912
2017-11-23T09:49:02.892Z,5516
2017-11-23T09:50:04.362Z,4636
2017-11-23T09:51:05.841Z,6008
2017-11-23T09:52:07.330Z,5800
2017-11-23T09:53:09.200Z,4544
2017-11-23T09:54:11.031Z,4124
2017-11-23T09:55:12.518Z,4656
2017-11-23T09:56:14.045Z,4792
2017-11-23T09:57:15.538Z,4448
2017-11-23T09:58:17.205Z,5620
2017-11-23T09:59:18.697Z,5200
2017-11-23T10:00:20.325Z,4516
2017-11-23T10:01:21.723Z,5352
2017-11-23T10:02:23.534Z,6972
2017-11-23T10:03:25.023Z,6580
2017-11-23T10:04:26.476Z,5868
2017-11-23T10:05:27.987Z,6472
2017-11-23T10:06:29.418Z,7356
2017-11-23T10:07:30.824Z,5640
2017-11-23T10:08:32.532Z,3836
2017-11-23T10:09:33.956Z,3564
2017-11-23T10:10:35.675Z,3668
2017-11-23T10:11:37.388Z,4860
2017-11-23T10:12:39.721Z,4116
2017-11-23T10:13:41.535Z,3560
2017-11-23T10:14:43.345Z,2852
2017-11-23T10:15:45.466Z,2872
2017-11-23T10:16:46.964Z,2940
2017-11-23T10:17:48.640Z,3180
2017-11-23T10:18:50.111Z,3840
2017-11-23T10:19:51.554Z,4272
2017-11-23T10:20:53.204Z,3980
2017-11-23T10:21:54.781Z,4016
2017-11-23T10:22:56.528Z,3900
2017-11-23T10:23:58.062Z,4976
2017-11-23T10:24:59.957Z,5592
2017-11-23T10:26:01.598Z,5448
2017-11-23T10:27:03.596Z,5640
2017-11-23T10:28:05.486Z,5896
2017-11-23T10:29:07.167Z,5644
2017-11-23T10:30:08.689Z,5936
2017-11-23T10:31:10.646Z,6456
2017-11-23T10:32:12.393Z,6640
2017-11-23T10:33:13.875Z,5904
2017-11-23T10:34:15.591Z,4756
2017-11-23T10:35:17.052Z,4668
2017-11-23T10:36:18.513Z,5604
2017-11-23T10:37:20.015Z,6696
2017-11-23T10:38:21.743Z,7020
2017-11-23T10:39:23.423Z,8388
2017-11-23T10:40:25.562Z,8376
2017-11-23T10:41:27.303Z,7808
2017-11-23T10:42:29.342Z,9204
2017-11-23T10:43:30.862Z,12060
2017-11-23T10:44:32.464Z,11040
2017-11-23T10:45:33.973Z,9144
2017-11-23T10:46:35.443Z,6396
2017-11-23T10:47:36.878Z,6396
2017-11-23T10:48:38.681Z,7852
2017-11-23T10:49:40.543Z,9240
2017-11-23T10:50:42.488Z,9612
2017-11-23T10:51:43.970Z,9200
2017-11-23T10:52:45.413Z,8392
2017-11-23T10:53:46.863Z,7024
2017-11-23T10:54:48.695Z,5824
2017-11-23T10:55:50.419Z,5932
2017-11-23T10:56:52.080Z,4604
2017-11-23T10:57:53.889Z,4152
2017-11-23T10:58:55.676Z,4388
2017-11-23T10:59:57.324Z,4700
2017-11-23T11:00:59.069Z,4800
2017-11-23T11:02:00.930Z,5628
2017-11-23T11:03:02.686Z,5548
2017-11-23T11:04:04.452Z,6400
2017-11-23T11:05:05.981Z,6636
2017-11-23T11:06:07.517Z,6112
2017-11-23T11:07:09.316Z,7936
2017-11-23T11:08:10.776Z,11616
2017-11-23T11:09:12.226Z,13312
2017-11-23T11:10:14.061Z,11872
2017-11-23T11:11:15.796Z,11224
2017-11-23T11:12:17.565Z,11224
2017-11-23T11:13:19.130Z,15648
2017-11-23T11:14:20.542Z,13776
2017-11-23T11:15:22.061Z,14436
2017-11-23T11:16:23.869Z,11332
2017-11-23T11:17:25.390Z,9792
2017-11-23T11:18:26.919Z,8656
2017-11-23T11:19:28.517Z,7824
2017-11-23T11:20:29.958Z,7636
2017-11-23T11:21:31.785Z,8736
2017-11-23T11:22:33.259Z,9168
2017-11-23T11:23:34.760Z,10172
2017-11-23T11:24:36.719Z,8192
2017-11-23T11:25:38.841Z,8864
2017-11-23T11:26:40.357Z,7200
2017-11-23T11:27:42.392Z,6544
2017-11-23T11:28:44.313Z,7664
2017-11-23T11:29:46.122Z,6708
2017-11-23T11:30:47.599Z,5720
2017-11-23T11:31:49.779Z,4660
2017-11-23T11:32:51.290Z,4600
2017-11-23T11:33:52.974Z,5144
2017-11-23T11:34:54.978Z,4620
2017-11-23T11:35:56.960Z,4716
2017-11-23T11:36:58.422Z,4756
2017-11-23T11:38:00.406Z,4848
2017-11-23T11:39:01.971Z,5236
2017-11-23T11:40:03.889Z,5672
2017-11-23T11:41:05.836Z,6032
2017-11-23T11:42:07.367Z,4784
2017-11-23T11:43:09.254Z,3888
2017-11-23T11:44:10.792Z,3356
2017-11-23T11:45:12.676Z,3548
2017-11-23T11:46:14.215Z,4192
2017-11-23T11:47:15.867Z,4500
2017-11-23T11:48:17.305Z,4104
2017-11-23T11:49:19.137Z,4124
2017-11-23T11:50:20.581Z,4332
2017-11-23T11:51:22.030Z,4052
2017-11-23T11:52:23.940Z,3692
2017-11-23T11:53:25.351Z,3276
2017-11-23T11:54:26.832Z,2648
2017-11-23T11:55:28.737Z,2376
2017-11-23T11:56:30.275Z,2572
2017-11-23T11:57:31.774Z,2964
2017-11-23T11:58:33.601Z,2976
2017-11-23T11:59:35.082Z,3336
2017-11-23T12:00:37.067Z,3664
2017-11-23T12:01:38.629Z,3432
2017-11-23T12:02:40.541Z,3132
2017-11-23T12:03:41.989Z,3328
2017-11-23T12:04:43.886Z,3108
2017-11-23T12:05:45.740Z,3284
2017-11-23T12:06:47.730Z,4580
2017-11-23T12:07:49.747Z,4292
2017-11-23T12:08:51.893Z,3576
2017-11-23T12:09:53.649Z,3564
2017-11-23T12:10:55.438Z,3088
2017-11-23T12:11:56.854Z,4080
2017-11-23T12:12:58.852Z,3948
2017-11-23T12:14:00.263Z,3424
2017-11-23T12:15:02.145Z,3248
2017-11-23T12:16:03.765Z,3092
2017-11-23T12:17:05.211Z,2960
2017-11-23T12:18:06.658Z,2680
2017-11-23T12:19:08.404Z,3124
2017-11-23T12:20:10.380Z,3012
2017-11-23T12:21:11.923Z,3988
2017-11-23T12:22:14.073Z,4324
2017-11-23T12:23:16.182Z,4720
2017-11-23T12:24:17.616Z,5704
2017-11-23T12:25:19.548Z,6884
2017-11-23T12:26:21.310Z,7028
2017-11-23T12:27:23.020Z,6708
2017-11-23T12:28:24.914Z,5992
2017-11-23T12:29:27.122Z,5228
2017-11-23T12:30:28.627Z,6856
2017-11-23T12:31:30.575Z,8240
2017-11-23T12:32:32.198Z,5496
2017-11-23T12:33:33.631Z,4936
2017-11-23T12:34:35.222Z,4980
2017-11-23T12:35:36.689Z,4652
2017-11-23T12:36:38.161Z,5776
2017-11-23T12:37:39.963Z,5736
2017-11-23T12:38:41.367Z,5896
2017-11-23T12:39:42.927Z,3604
2017-11-23T12:40:44.919Z,3096
2017-11-23T12:41:46.453Z,3104
2017-11-23T12:42:47.895Z,2504
2017-11-23T12:43:49.459Z,2080
2017-11-23T12:44:50.893Z,1780
2017-11-23T12:45:52.357Z,1752
2017-11-23T12:46:54.183Z,1352
2017-11-23T12:47:56.304Z,1428
2017-11-23T12:48:58.404Z,1780
2017-11-23T12:50:00.118Z,1996
2017-11-23T12:51:01.823Z,2696
2017-11-23T12:52:03.316Z,3164
2017-11-23T12:53:05.230Z,3988
2017-11-23T12:54:06.785Z,4028
2017-11-23T12:55:08.311Z,3164
2017-11-23T12:56:09.778Z,3852
2017-11-23T12:57:11.246Z,3632
2017-11-23T12:58:13.007Z,3564
2017-11-23T12:59:15.060Z,5308
2017-11-23T13:00:16.654Z,4136
2017-11-23T13:01:18.088Z,2320
2017-11-23T13:02:19.554Z,2292
2017-11-23T13:03:20.977Z,2468
2017-11-23T13:04:22.424Z,3552
2017-11-23T13:05:23.946Z,5464
2017-11-23T13:06:25.400Z,9248
2017-11-23T13:07:27.601Z,9432
2017-11-23T13:08:29.082Z,8316
2017-11-23T13:09:30.530Z,4356
2017-11-23T13:10:32.336Z,3964
2017-11-23T13:11:34.267Z,3924
2017-11-23T13:12:36.252Z,5280
2017-11-23T13:13:38.233Z,4644
2017-11-23T13:14:39.915Z,4036
2017-11-23T13:15:41.353Z,7992
2017-11-23T13:16:42.824Z,4560
2017-11-23T13:17:44.991Z,5240
2017-11-23T13:18:46.734Z,4008
2017-11-23T13:19:48.201Z,5344
2017-11-23T13:20:50.215Z,7616
2017-11-23T13:21:52.388Z,6264
2017-11-23T13:22:54.030Z,11624
2017-11-23T13:23:55.907Z,6012
2017-11-23T13:24:57.670Z,8180
2017-11-23T13:25:59.567Z,5980
2017-11-23T13:27:01.088Z,4380
2017-11-23T13:28:03.305Z,4552
2017-11-23T13:29:05.183Z,5388
2017-11-23T13:30:06.621Z,5816
2017-11-23T13:31:08.652Z,5904
2017-11-23T13:32:10.196Z,6116
2017-11-23T13:33:11.751Z,7028
2017-11-23T13:34:13.344Z,5800
2017-11-23T13:35:14.833Z,5308
2017-11-23T13:36:16.978Z,5160
2017-11-23T13:37:18.439Z,4452
2017-11-23T13:38:19.923Z,3828
2017-11-23T13:39:21.693Z,4496
2017-11-23T13:40:23.547Z,3980
2017-11-23T13:41:25.423Z,2500
2017-11-23T13:42:26.869Z,2368
2017-11-23T13:43:28.785Z,3084
2017-11-23T13:44:30.304Z,3872
2017-11-23T13:45:32.147Z,3700
2017-11-23T13:46:34.028Z,3252
2017-11-23T13:47:35.770Z,4796
2017-11-23T13:48:37.234Z,5384
2017-11-23T13:49:38.729Z,3892
2017-11-23T13:50:40.176Z,3492
2017-11-23T13:51:41.594Z,3892
2017-11-23T13:52:43.334Z,3472
2017-11-23T13:53:45.303Z,3244
2017-11-23T13:54:46.875Z,2952
2017-11-23T13:55:48.374Z,2728
2017-11-23T13:56:49.797Z,3404
2017-11-23T13:57:51.257Z,3148
2017-11-23T13:58:52.702Z,2420
2017-11-23T13:59:54.774Z,2304
2017-11-23T14:00:56.740Z,1804
2017-11-23T14:01:58.792Z,1492
2017-11-23T14:03:00.831Z,1368
2017-11-23T14:04:02.704Z,1124
2017-11-23T14:05:04.199Z,1124
2017-11-23T14:06:05.683Z,956
2017-11-23T14:07:07.193Z,1268
2017-11-23T14:08:09.039Z,1332
2017-11-23T14:09:10.487Z,1252
2017-11-23T14:10:12.200Z,1428
2017-11-23T14:11:13.825Z,1528
2017-11-23T14:12:15.306Z,1288
2017-11-23T14:13:17.001Z,1424
2017-11-23T14:14:18.746Z,1712
2017-11-23T14:15:20.681Z,3188
2017-11-23T14:16:22.603Z,3748
2017-11-23T14:17:24.052Z,5196
2017-11-23T14:18:25.973Z,4844
2017-11-23T14:19:27.416Z,4976
2017-11-23T14:20:29.466Z,4936
2017-11-23T14:21:30.909Z,4944
2017-11-23T14:22:32.493Z,4952
2017-11-23T14:23:33.992Z,4888